createdAt,value
2019-04-06T00:01:05.330Z,52.73
2019-04-06T00:04:09.082Z,52.10
2019-04-06T00:07:12.893Z,48.47
2019-04-06T00:10:17.119Z,49.57
2019-04-06T00:13:20.958Z,49.43
2019-04-06T00:16:24.913Z,47.13
2019-04-06T00:19:28.830Z,45.27
2019-04-06T00:22:32.658Z,45.25
2019-04-06T00:25:44.215Z,43.27
2019-04-06T00:28:41.938Z,39.25
2019-04-06T00:32:03.490Z,35.27
2019-04-06T00:35:07.675Z,46.27
2019-04-06T00:38:11.371Z,42.03
2019-04-06T00:41:15.022Z,41.87
2019-04-06T00:44:18.858Z,36.30
2019-04-06T00:47:22.789Z,37.20
2019-04-06T00:50:26.574Z,34.80
2019-04-06T00:53:30.534Z,30.40
2019-04-06T00:56:34.193Z,34.40
2019-04-06T00:59:37.898Z,34.17
2019-04-06T01:02:41.670Z,34.87
2019-04-06T01:05:46.326Z,34.65
2019-04-06T01:08:50.061Z,32.90
2019-04-06T01:11:54.273Z,29.23
2019-04-06T01:14:58.045Z,27.10
2019-04-06T01:18:02.107Z,29.52
2019-04-06T01:21:06.867Z,30.20
2019-04-06T01:24:10.555Z,25.33
2019-04-06T01:27:14.273Z,24.33
2019-04-06T01:30:18.178Z,25.50
2019-04-06T01:33:22.203Z,28.83
2019-04-06T01:36:25.893Z,25.67
2019-04-06T01:39:29.576Z,26.77
2019-04-06T01:42:33.297Z,24.83
2019-04-06T01:45:37.191Z,28.50
2019-04-06T01:48:40.934Z,25.33
2019-04-06T01:51:44.616Z,23.50
2019-04-06T01:54:48.298Z,28.60
2019-04-06T01:57:52.039Z,30.33
2019-04-06T02:01:13.795Z,25.87
2019-04-06T02:04:17.750Z,27.85
2019-04-06T02:07:21.482Z,24.63
2019-04-06T02:10:25.185Z,26.43
2019-04-06T02:13:28.883Z,21.73
2019-04-06T02:16:32.574Z,26.63
2019-04-06T02:19:36.296Z,22.57
2019-04-06T02:22:39.973Z,27.20
2019-04-06T02:25:43.640Z,25.40
2019-04-06T02:28:47.397Z,26.63
2019-04-06T02:32:03.122Z,22.90
2019-04-06T02:35:32.139Z,22.67
2019-04-06T02:38:55.794Z,24.70
2019-04-06T02:42:06.270Z,27.00
2019-04-06T02:45:10.316Z,25.13
2019-04-06T02:48:14.080Z,29.20
2019-04-06T02:51:17.846Z,25.73
2019-04-06T02:54:21.623Z,29.33
2019-04-06T02:57:25.306Z,27.27
2019-04-06T03:00:29.261Z,29.33
2019-04-06T03:03:33.383Z,29.20
2019-04-06T03:06:37.350Z,28.03
2019-04-06T03:09:41.105Z,24.67
2019-04-06T03:12:44.860Z,26.00
2019-04-06T03:15:48.748Z,27.07
2019-04-06T03:18:52.850Z,28.80
2019-04-06T03:21:56.567Z,26.37
2019-04-06T03:25:00.321Z,26.33
2019-04-06T03:28:04.209Z,31.90
2019-04-06T03:31:08.236Z,23.47
2019-04-06T03:34:12.374Z,24.57
2019-04-06T03:37:16.161Z,26.70
2019-04-06T03:40:19.902Z,22.87
2019-04-06T03:43:23.618Z,25.23
2019-04-06T03:46:27.276Z,24.50
2019-04-06T03:49:31.011Z,24.83
2019-04-06T03:52:34.998Z,26.73
2019-04-06T03:55:39.525Z,22.75
2019-04-06T03:58:43.636Z,23.37
2019-04-06T04:01:47.695Z,21.75
2019-04-06T04:04:51.475Z,23.60
2019-04-06T04:07:55.502Z,21.17
2019-04-06T04:10:59.237Z,21.55
2019-04-06T04:14:03.328Z,23.97
2019-04-06T04:17:07.146Z,23.20
2019-04-06T04:20:11.151Z,27.80
2019-04-06T04:23:14.918Z,23.40
2019-04-06T04:26:18.678Z,26.00
2019-04-06T04:29:22.611Z,30.70
2019-04-06T04:32:26.840Z,27.47
2019-04-06T04:35:30.561Z,29.60
2019-04-06T04:38:34.328Z,31.60
2019-04-06T04:41:39.798Z,28.30
2019-04-06T04:44:43.908Z,28.03
2019-04-06T04:47:50.026Z,30.53
2019-04-06T04:50:53.222Z,27.43
2019-04-06T04:53:57.179Z,30.53
2019-04-06T04:57:00.981Z,28.73
2019-04-06T05:00:05.647Z,26.70
2019-04-06T05:03:09.363Z,29.47
2019-04-06T05:06:13.053Z,30.67
2019-04-06T05:09:17.082Z,34.43
2019-04-06T05:12:20.977Z,29.77
2019-04-06T05:16:05.187Z,28.37
2019-04-06T05:19:08.901Z,28.50
2019-04-06T05:22:12.949Z,32.40
2019-04-06T05:25:16.810Z,27.93
2019-04-06T05:28:20.570Z,31.97
2019-04-06T05:31:24.483Z,27.23
2019-04-06T05:34:28.174Z,29.37
2019-04-06T05:37:31.922Z,35.07
2019-04-06T05:40:35.621Z,25.13
2019-04-06T05:43:39.329Z,29.03
2019-04-06T05:46:43.114Z,32.70
2019-04-06T05:49:47.384Z,30.10
2019-04-06T05:52:51.078Z,36.60
2019-04-06T05:55:54.842Z,29.97
2019-04-06T05:58:58.646Z,28.63
2019-04-06T06:02:02.810Z,31.63
2019-04-06T06:05:08.561Z,36.37
2019-04-06T06:08:13.118Z,36.50
2019-04-06T06:11:16.866Z,30.57
2019-04-06T06:14:20.814Z,30.63
2019-04-06T06:17:24.649Z,28.03
2019-04-06T06:20:28.385Z,31.33
2019-04-06T06:23:32.292Z,34.77
2019-04-06T06:26:36.174Z,36.47
2019-04-06T06:29:39.863Z,33.37
2019-04-06T06:32:43.714Z,29.20
2019-04-06T06:35:47.517Z,35.93
2019-04-06T06:38:51.354Z,36.97
2019-04-06T06:41:55.178Z,38.70
2019-04-06T06:44:58.991Z,33.70
2019-04-06T06:48:02.748Z,42.50
2019-04-06T06:51:06.576Z,40.07
2019-04-06T06:54:10.289Z,33.07
2019-04-06T06:57:13.975Z,36.47
2019-04-06T07:00:17.750Z,34.93
2019-04-06T07:03:21.503Z,34.07
2019-04-06T07:06:25.253Z,35.87
2019-04-06T07:09:29.549Z,36.17
2019-04-06T07:12:33.253Z,39.97
2019-04-06T07:15:36.916Z,36.67
2019-04-06T07:18:40.824Z,32.53
2019-04-06T07:21:44.668Z,29.60
2019-04-06T07:24:48.462Z,35.95
2019-04-06T07:27:52.372Z,34.75
2019-04-06T07:30:56.134Z,34.78
2019-04-06T07:33:59.937Z,32.43
2019-04-06T07:37:03.690Z,35.97
2019-04-06T07:40:08.669Z,35.43
2019-04-06T07:43:12.666Z,31.03
2019-04-06T07:46:16.526Z,29.63
2019-04-06T07:49:20.274Z,36.40
2019-04-06T07:52:24.910Z,39.07
2019-04-06T07:55:28.601Z,36.90
2019-04-06T07:58:32.378Z,33.03
2019-04-06T08:01:36.045Z,35.33
2019-04-06T08:04:39.838Z,35.10
2019-04-06T08:07:43.577Z,37.67
2019-04-06T08:10:47.229Z,40.27
2019-04-06T08:13:50.959Z,32.17
2019-04-06T08:16:54.773Z,34.03
2019-04-06T08:19:58.466Z,34.53
2019-04-06T08:23:02.180Z,37.07
2019-04-06T08:26:05.923Z,35.00
2019-04-06T08:29:09.597Z,39.73
2019-04-06T08:32:13.320Z,39.70
2019-04-06T08:35:25.089Z,33.60
2019-04-06T08:38:22.702Z,38.50
2019-04-06T08:41:26.405Z,33.27
2019-04-06T08:44:30.165Z,36.20
2019-04-06T08:47:34.274Z,31.97
2019-04-06T08:50:38.058Z,31.83
2019-04-06T08:53:41.987Z,34.37
2019-04-06T08:56:45.768Z,39.03
2019-04-06T08:59:49.526Z,34.17
2019-04-06T09:02:53.217Z,34.47
2019-04-06T09:05:56.955Z,34.23
2019-04-06T09:09:00.922Z,33.63
2019-04-06T09:12:04.801Z,35.20
2019-04-06T09:15:09.368Z,32.27
2019-04-06T09:18:13.075Z,35.37
2019-04-06T09:21:16.799Z,33.30
2019-04-06T09:24:20.710Z,31.10
2019-04-06T09:27:24.405Z,37.80
2019-04-06T09:30:30.517Z,33.85
2019-04-06T09:33:34.287Z,35.50
2019-04-06T09:36:38.014Z,38.30
2019-04-06T09:39:41.713Z,29.77
2019-04-06T09:42:45.431Z,28.33
2019-04-06T09:46:06.308Z,30.80
2019-04-06T09:49:32.933Z,30.77
2019-04-06T09:52:47.142Z,31.47
2019-04-06T09:56:17.165Z,30.37
2019-04-06T09:59:35.888Z,29.30
2019-04-06T10:03:10.241Z,35.90
2019-04-06T10:06:26.198Z,29.03
2019-04-06T10:09:45.045Z,29.23
2019-04-06T10:13:06.714Z,27.27
2019-04-06T10:16:21.983Z,24.30
2019-04-06T10:19:40.327Z,27.83
2019-04-06T10:22:52.985Z,24.53
2019-04-06T10:26:25.422Z,24.87
2019-04-06T10:29:48.867Z,30.77
2019-04-06T10:32:57.637Z,24.83
2019-04-06T10:36:23.396Z,27.60
2019-04-06T10:39:34.081Z,32.13
2019-04-06T10:42:51.868Z,21.87
2019-04-06T10:46:12.537Z,33.93
2019-04-06T10:49:26.389Z,30.10
2019-04-06T10:52:58.243Z,28.77
2019-04-06T10:56:30.279Z,29.13
2019-04-06T10:59:45.181Z,24.67
2019-04-06T11:02:59.781Z,30.52
2019-04-06T11:06:14.526Z,24.73
2019-04-06T11:09:37.411Z,25.47
2019-04-06T11:12:52.229Z,24.30
2019-04-06T11:16:13.118Z,25.37
2019-04-06T11:19:32.748Z,24.77
2019-04-06T11:22:49.417Z,25.13
2019-04-06T11:26:21.261Z,26.47
2019-04-06T11:29:29.526Z,22.90
2019-04-06T11:32:45.171Z,24.53
2019-04-06T11:35:57.222Z,24.27
2019-04-06T11:39:18.902Z,22.37
2019-04-06T11:42:44.885Z,25.50
2019-04-06T11:46:23.502Z,26.85
2019-04-06T11:49:38.457Z,27.50
2019-04-06T11:53:04.314Z,26.87
2019-04-06T11:56:27.093Z,26.07
2019-04-06T11:59:47.698Z,24.83
2019-04-06T12:02:56.364Z,25.63
2019-04-06T12:06:07.189Z,25.90
2019-04-06T12:09:22.595Z,26.10
2019-04-06T12:12:45.394Z,27.17
2019-04-06T12:16:07.368Z,25.60
2019-04-06T12:19:15.669Z,24.00
2019-04-06T12:22:27.656Z,26.53
2019-04-06T12:26:02.601Z,25.10
2019-04-06T12:29:17.211Z,29.57
2019-04-06T12:32:45.318Z,26.47
2019-04-06T12:36:07.081Z,25.20
2019-04-06T12:39:36.094Z,28.63
2019-04-06T12:42:45.178Z,23.97
2019-04-06T12:46:12.543Z,25.07
2019-04-06T12:49:35.417Z,29.80
2019-04-06T12:53:07.075Z,23.33
2019-04-06T12:56:22.647Z,26.33
2019-04-06T12:59:43.530Z,24.23
2019-04-06T13:03:24.347Z,25.73
2019-04-06T13:07:00.184Z,23.23
2019-04-06T13:10:19.081Z,23.67
2019-04-06T13:13:42.074Z,23.47
2019-04-06T13:17:02.642Z,28.17
2019-04-06T13:20:15.185Z,20.57
2019-04-06T13:23:37.182Z,22.63
2019-04-06T13:27:12.132Z,20.57
2019-04-06T13:30:26.214Z,25.40
2019-04-06T13:33:46.534Z,27.20
2019-04-06T13:37:00.231Z,20.57
2019-04-06T13:40:21.914Z,18.37
2019-04-06T13:43:38.647Z,18.60
2019-04-06T13:47:07.981Z,19.27
2019-04-06T13:50:17.785Z,18.07
2019-04-06T13:53:40.633Z,21.57
2019-04-06T13:57:03.695Z,16.93
2019-04-06T14:00:17.768Z,19.57
2019-04-06T14:03:55.655Z,17.67
2019-04-06T14:07:18.442Z,21.53
2019-04-06T14:10:43.734Z,17.70
2019-04-06T14:13:54.444Z,15.57
2019-04-06T14:17:08.684Z,17.93
2019-04-06T14:20:32.603Z,16.47
2019-04-06T14:23:42.455Z,17.77
2019-04-06T14:27:05.027Z,16.20
2019-04-06T14:30:21.282Z,14.47
2019-04-06T14:33:45.441Z,15.87
2019-04-06T14:37:16.394Z,16.63
2019-04-06T14:40:33.083Z,15.03
2019-04-06T14:43:48.870Z,14.93
2019-04-06T14:47:03.146Z,16.07
2019-04-06T14:50:14.451Z,14.73
2019-04-06T14:53:27.126Z,16.03
2019-04-06T14:56:37.290Z,16.20
2019-04-06T14:59:55.889Z,17.90
2019-04-06T15:03:19.062Z,20.90
2019-04-06T15:07:09.552Z,16.43
2019-04-06T15:10:25.434Z,16.20
2019-04-06T15:13:44.281Z,16.57
2019-04-06T15:17:06.345Z,16.90
2019-04-06T15:20:17.119Z,15.70
2019-04-06T15:23:30.329Z,16.07
2019-04-06T15:26:59.101Z,15.27
2019-04-06T15:30:22.895Z,15.43
2019-04-06T15:33:35.818Z,15.17
2019-04-06T15:36:49.014Z,15.73
2019-04-06T15:40:05.457Z,19.80
2019-04-06T15:43:40.411Z,14.77
2019-04-06T15:46:57.573Z,15.30
2019-04-06T15:50:19.193Z,15.73
2019-04-06T15:53:39.856Z,15.67
2019-04-06T15:57:05.555Z,14.83
2019-04-06T16:00:44.342Z,15.30
2019-04-06T16:04:08.418Z,14.73
2019-04-06T16:07:37.274Z,15.83
2019-04-06T16:10:58.937Z,20.73
2019-04-06T16:14:25.037Z,17.10
2019-04-06T16:17:36.020Z,17.60
2019-04-06T16:21:03.422Z,21.10
2019-04-06T16:24:26.974Z,22.10
2019-04-06T16:27:48.287Z,21.30
2019-04-06T16:31:01.399Z,19.50
2019-04-06T16:34:13.207Z,18.00
2019-04-06T16:37:25.961Z,20.33
2019-04-06T16:40:54.637Z,23.10
2019-04-06T16:44:20.127Z,18.10
2019-04-06T16:47:41.370Z,19.97
2019-04-06T16:51:00.108Z,18.70
2019-04-06T16:54:12.182Z,22.50
2019-04-06T16:57:41.399Z,20.03
2019-04-06T17:01:00.653Z,20.37
2019-04-06T17:04:26.887Z,22.30
2019-04-06T17:07:48.246Z,20.53
2019-04-06T17:11:11.086Z,20.90
2019-04-06T17:14:27.400Z,18.10
2019-04-06T17:17:48.057Z,18.93
2019-04-06T17:21:13.754Z,21.60
2019-04-06T17:24:28.242Z,24.10
2019-04-06T17:27:40.742Z,17.83
2019-04-06T17:31:03.910Z,19.20
2019-04-06T17:34:29.592Z,21.23
2019-04-06T17:37:42.098Z,20.63
2019-04-06T17:40:51.070Z,23.10
2019-04-06T17:44:03.819Z,20.33
2019-04-06T17:47:25.547Z,18.00
2019-04-06T17:50:55.556Z,20.90
2019-04-06T17:54:18.757Z,19.33
2019-04-06T17:57:33.607Z,18.73
2019-04-06T18:00:50.356Z,16.90
2019-04-06T18:04:03.017Z,18.37
2019-04-06T18:07:32.305Z,21.03
2019-04-06T18:10:54.689Z,17.50
2019-04-06T18:13:58.540Z,18.50
2019-04-06T18:17:02.314Z,19.10
2019-04-06T18:20:07.598Z,16.03
2019-04-06T18:23:11.384Z,17.70
2019-04-06T18:26:15.544Z,18.77
2019-04-06T18:29:19.449Z,23.53
2019-04-06T18:33:00.714Z,19.03
2019-04-06T18:36:00.608Z,20.82
2019-04-06T18:39:08.509Z,15.93
2019-04-06T18:42:12.290Z,20.07
2019-04-06T18:45:16.592Z,17.03
2019-04-06T18:48:20.491Z,19.23
2019-04-06T18:51:24.251Z,17.90
2019-04-06T18:54:27.953Z,18.83
2019-04-06T18:57:32.181Z,17.20
2019-04-06T19:00:36.723Z,21.17
2019-04-06T19:03:40.461Z,17.93
2019-04-06T19:06:45.454Z,17.03
2019-04-06T19:09:49.181Z,17.13
2019-04-06T19:12:53.054Z,22.27
2019-04-06T19:15:56.828Z,19.90
2019-04-06T19:19:00.602Z,18.20
2019-04-06T19:22:04.455Z,21.13
2019-04-06T19:25:08.534Z,17.80
2019-04-06T19:28:12.309Z,18.10
2019-04-06T19:31:16.082Z,20.83
2019-04-06T19:34:19.945Z,18.67
2019-04-06T19:37:23.831Z,21.17
2019-04-06T19:40:28.598Z,22.73
2019-04-06T19:43:32.342Z,19.73
2019-04-06T19:46:36.307Z,18.27
2019-04-06T19:49:40.338Z,19.10
2019-04-06T19:52:44.426Z,16.63
2019-04-06T19:55:48.461Z,21.27
2019-04-06T19:58:52.429Z,19.63
2019-04-06T20:01:56.608Z,18.10
2019-04-06T20:05:00.483Z,22.20
2019-04-06T20:08:04.761Z,18.60
2019-04-06T20:11:09.029Z,20.10
2019-04-06T20:14:13.079Z,19.80
2019-04-06T20:17:16.994Z,22.77
2019-04-06T20:20:21.195Z,21.33
2019-04-06T20:23:27.014Z,19.40
2019-04-06T20:26:32.235Z,21.17
2019-04-06T20:29:36.714Z,19.60
2019-04-06T20:32:40.699Z,22.97
2019-04-06T20:35:44.521Z,20.10
2019-04-06T20:38:48.526Z,21.20
2019-04-06T20:41:52.991Z,24.37
2019-04-06T20:44:56.877Z,19.07
2019-04-06T20:48:00.851Z,18.67
2019-04-06T20:51:05.005Z,22.63
2019-04-06T20:54:09.250Z,18.73
2019-04-06T20:57:13.165Z,18.80
2019-04-06T21:00:17.766Z,22.80
2019-04-06T21:03:21.709Z,20.82
2019-04-06T21:06:25.684Z,19.17
2019-04-06T21:09:29.466Z,22.70
2019-04-06T21:12:33.428Z,20.43
2019-04-06T21:15:37.669Z,22.77
2019-04-06T21:18:41.902Z,21.10
2019-04-06T21:21:47.079Z,20.40
2019-04-06T21:24:51.491Z,20.53
2019-04-06T21:27:55.800Z,20.10
2019-04-06T21:30:59.797Z,23.03
2019-04-06T21:34:11.561Z,24.57
2019-04-06T21:37:10.183Z,25.30
2019-04-06T21:40:14.744Z,20.70
2019-04-06T21:43:19.158Z,26.73
2019-04-06T21:46:23.532Z,22.03
2019-04-06T21:49:27.960Z,19.47
2019-04-06T21:52:31.958Z,24.23
2019-04-06T21:55:35.784Z,18.67
2019-04-06T21:58:40.420Z,21.20
2019-04-06T22:01:45.023Z,21.30
2019-04-06T22:04:49.718Z,21.03
2019-04-06T22:07:54.770Z,18.93
2019-04-06T22:10:58.569Z,19.77
2019-04-06T22:14:02.423Z,19.48
2019-04-06T22:17:07.415Z,19.03
2019-04-06T22:20:12.333Z,26.03
2019-04-06T22:23:16.285Z,21.30
2019-04-06T22:26:20.007Z,26.10
2019-04-06T22:29:23.882Z,26.43
2019-04-06T22:32:27.662Z,21.43
2019-04-06T22:35:31.399Z,20.10
2019-04-06T22:38:35.135Z,24.72
2019-04-06T22:41:39.286Z,29.67
2019-04-06T22:44:42.994Z,23.53
2019-04-06T22:47:47.290Z,20.63
2019-04-06T22:50:50.994Z,21.27
2019-04-06T22:53:54.718Z,22.97
2019-04-06T22:56:58.822Z,22.90
2019-04-06T23:00:02.524Z,23.67
2019-04-06T23:03:18.462Z,28.27
2019-04-06T23:06:27.289Z,20.50
2019-04-06T23:09:30.998Z,26.17
2019-04-06T23:12:34.697Z,25.43
2019-04-06T23:15:39.378Z,25.97
2019-04-06T23:18:43.414Z,21.10
2019-04-06T23:21:47.560Z,18.87
2019-04-06T23:24:51.679Z,22.77
2019-04-06T23:27:55.664Z,21.00
2019-04-06T23:30:59.407Z,20.23
2019-04-06T23:34:03.459Z,19.50
2019-04-06T23:37:07.282Z,19.23
2019-04-06T23:40:11.255Z,22.07
2019-04-06T23:43:15.073Z,20.37
2019-04-06T23:46:19.015Z,19.00
2019-04-06T23:49:23.529Z,20.30
2019-04-06T23:52:27.470Z,21.33
2019-04-06T23:55:32.698Z,20.88
2019-04-06T23:58:36.486Z,23.57
